Time;durP1;ratioP1;P1;durP2;ratioP2;P2;SDS_P1;SDS_P2;PMS_P1;PMS_P2;Temp;Humidity;BMP_temperature;BMP_pressure;BME280_temperature;BME280_humidity;BME280_pressure;Samples;Min_cycle;Max_cycle;Signal;HPM_P1;HPM_P2
2022/06/25 00:01:50;;;;;;;5.28;3.50;;;;;23.90;100674.00;;;;5046044;28;20204;-77
2022/06/25 00:07:02;;;;;;;3.97;3.58;;;;;23.80;100678.00;;;;5029690;28;20202;-77
2022/06/25 00:09:30;;;;;;;32.95;3.75;;;;;23.80;100668.00;;;;5042515;28;21211;-78
2022/06/25 00:14:43;;;;;;;3.72;2.90;;;;;23.80;100681.00;;;;5048862;28;20256;-77
2022/06/25 00:17:11;;;;;;;3.35;3.05;;;;;23.70;100675.00;;;;5048594;28;20196;-78
2022/06/25 00:19:38;;;;;;;3.45;3.15;;;;;23.70;100680.00;;;;5044995;28;20207;-77
2022/06/25 00:22:06;;;;;;;6.30;3.45;;;;;23.70;100673.00;;;;5042407;28;20204;-77
2022/06/25 00:24:33;;;;;;;4.57;2.88;;;;;23.70;100676.00;;;;5036048;28;20207;-77
2022/06/25 00:27:02;;;;;;;4.68;3.05;;;;;23.60;100675.00;;;;5047747;28;20214;-77
2022/06/25 00:29:29;;;;;;;4.20;3.05;;;;;23.70;100687.00;;;;5044286;28;20218;-77
2022/06/25 00:31:56;;;;;;;4.20;3.10;;;;;23.60;100684.00;;;;5047363;28;20669;-77
2022/06/25 00:34:25;;;;;;;3.80;3.30;;;;;23.60;100680.00;;;;5047639;28;20200;-77
2022/06/25 00:36:53;;;;;;;4.25;3.05;;;;;23.60;100676.00;;;;5046895;28;20214;-77
2022/06/25 00:39:20;;;;;;;6.05;3.42;;;;;23.60;100691.00;;;;5042137;28;20208;-77
2022/06/25 00:41:48;;;;;;;3.13;2.83;;;;;23.60;100690.00;;;;5036497;28;20302;-77
2022/06/25 00:44:17;;;;;;;3.03;2.78;;;;;23.60;100685.00;;;;5047356;28;20230;-77
2022/06/25 00:46:47;;;;;;;3.00;2.72;;;;;23.50;100690.00;;;;5047048;28;20253;-77
2022/06/25 00:49:15;;;;;;;3.13;2.75;;;;;23.60;100690.00;;;;5047468;28;20340;-77
2022/06/25 00:51:47;;;;;;;5.25;2.55;;;;;23.50;100691.00;;;;5046464;28;20269;-77
2022/06/25 00:54:17;;;;;;;3.20;2.78;;;;;23.50;100691.00;;;;5047331;28;20196;-77
2022/06/25 00:56:48;;;;;;;3.03;2.80;;;;;23.50;100696.00;;;;5039744;28;20700;-77
2022/06/25 00:59:20;;;;;;;3.45;3.15;;;;;23.50;100695.00;;;;5037946;28;20309;-77
2022/06/25 01:01:47;;;;;;;3.30;3.00;;;;;23.50;100695.00;;;;5047644;28;20205;-77
2022/06/25 01:04:15;;;;;;;3.15;2.85;;;;;23.50;100702.00;;;;5046833;28;20204;-77
2022/06/25 01:06:42;;;;;;;4.00;3.22;;;;;23.40;100701.00;;;;5047752;28;20207;-77
2022/06/25 01:09:10;;;;;;;4.10;3.08;;;;;23.40;100698.00;;;;5046998;28;20223;-77
2022/06/25 01:11:37;;;;;;;3.47;2.78;;;;;23.40;100704.00;;;;5047460;28;20202;-77
2022/06/25 01:14:08;;;;;;;3.75;3.17;;;;;23.40;100705.00;;;;5035697;28;20208;-77
2022/06/25 01:16:38;;;;;;;3.03;2.72;;;;;23.40;100709.00;;;;5032965;28;20191;-77
2022/06/25 01:19:10;;;;;;;3.90;3.03;;;;;23.30;100707.00;;;;5047008;28;20195;-77
2022/06/25 01:21:37;;;;;;;4.07;3.30;;;;;23.40;100708.00;;;;5044799;28;20202;-77
2022/06/25 01:24:07;;;;;;;6.05;3.80;;;;;23.30;100714.00;;;;5047476;28;20200;-77
2022/06/25 01:26:35;;;;;;;3.67;3.38;;;;;23.30;100708.00;;;;5046550;28;20219;-78
2022/06/25 01:29:03;;;;;;;3.72;3.42;;;;;23.30;100716.00;;;;5047353;28;20220;-78
2022/06/25 01:31:31;;;;;;;4.30;3.40;;;;;23.30;100713.00;;;;5035430;28;20234;-78
2022/06/25 01:33:59;;;;;;;3.05;2.83;;;;;23.30;100719.00;;;;5030951;28;20892;-78
2022/06/25 01:36:27;;;;;;;4.40;2.97;;;;;23.30;100722.00;;;;5040929;28;20203;-78
2022/06/25 01:38:54;;;;;;;4.43;3.55;;;;;23.30;100719.00;;;;5051047;28;20211;-78
2022/06/25 01:41:23;;;;;;;4.43;4.00;;;;;23.30;100718.00;;;;5051573;28;20192;-78
2022/06/25 01:43:50;;;;;;;4.18;3.05;;;;;23.30;100719.00;;;;5050713;28;20237;-78
2022/06/25 01:46:17;;;;;;;5.00;3.03;;;;;23.30;100722.00;;;;5050850;28;20192;-78
2022/06/25 01:48:45;;;;;;;8.05;3.47;;;;;23.20;100720.00;;;;5040611;28;20576;-78
2022/06/25 01:51:14;;;;;;;3.40;2.95;;;;;23.20;100716.00;;;;5038480;28;20692;-78
2022/06/25 01:53:41;;;;;;;3.65;3.33;;;;;23.20;100721.00;;;;5050698;28;20191;-78
2022/06/25 01:56:09;;;;;;;3.90;3.22;;;;;23.20;100720.00;;;;5049752;28;20626;-78
2022/06/25 01:58:39;;;;;;;3.80;3.28;;;;;23.20;100728.00;;;;5051371;28;20203;-78
2022/06/25 02:01:06;;;;;;;3.08;2.78;;;;;23.20;100736.00;;;;5050319;28;20657;-78
2022/06/25 02:03:34;;;;;;;4.95;3.22;;;;;23.20;100736.00;;;;5049254;28;20273;-78
2022/06/25 02:06:01;;;;;;;3.53;3.22;;;;;23.20;100731.00;;;;5046934;28;20192;-78
2022/06/25 02:08:31;;;;;;;3.28;2.72;;;;;23.20;100739.00;;;;5051939;28;20204;-78
2022/06/25 02:10:58;;;;;;;3.70;2.97;;;;;23.20;100745.00;;;;5050172;28;20242;-78
2022/06/25 02:13:26;;;;;;;4.65;3.08;;;;;23.20;100743.00;;;;5049260;28;20199;-78
2022/06/25 02:15:56;;;;;;;3.13;2.72;;;;;23.10;100748.00;;;;5049122;28;20196;-77
2022/06/25 02:18:24;;;;;;;3.65;2.85;;;;;23.10;100752.00;;;;5048711;28;20203;-78
2022/06/25 02:20:52;;;;;;;3.33;2.83;;;;;23.10;100753.00;;;;5048616;28;20207;-78
2022/06/25 02:23:23;;;;;;;3.42;2.97;;;;;23.10;100758.00;;;;5044785;28;20203;-77
2022/06/25 02:25:50;;;;;;;3.25;2.83;;;;;23.10;100762.00;;;;5049314;28;20234;-78
2022/06/25 02:28:19;;;;;;;3.30;3.00;;;;;23.10;100768.00;;;;5050790;28;20198;-78
2022/06/25 02:30:46;;;;;;;4.43;3.08;;;;;23.10;100765.00;;;;5049819;28;20219;-78
2022/06/25 02:33:16;;;;;;;3.20;2.90;;;;;23.10;100766.00;;;;5049349;28;20196;-78
2022/06/25 02:35:44;;;;;;;3.15;2.58;;;;;23.10;100768.00;;;;5049192;28;20603;-78
2022/06/25 02:38:13;;;;;;;5.03;2.50;;;;;23.10;100774.00;;;;5046697;28;20208;-78
2022/06/25 02:40:41;;;;;;;4.47;2.50;;;;;23.00;100775.00;;;;5048495;28;20196;-78
2022/06/25 02:43:08;;;;;;;6.03;2.63;;;;;23.10;100778.00;;;;5048452;28;21052;-78
2022/06/25 02:45:35;;;;;;;5.43;2.92;;;;;23.00;100785.00;;;;5046781;28;20211;-78
2022/06/25 02:48:03;;;;;;;4.07;2.67;;;;;23.00;100791.00;;;;5049941;28;20206;-78
2022/06/25 02:50:31;;;;;;;2.95;2.42;;;;;23.00;100788.00;;;;5049445;28;20713;-78
2022/06/25 02:52:59;;;;;;;2.72;2.53;;;;;23.00;100792.00;;;;5070429;28;20206;-77
2022/06/25 03:00:52;;;;;;;2.45;2.25;;;;;23.00;100791.00;;;;5035106;28;20580;-78
2022/06/25 03:03:21;;;;;;;3.72;2.38;;;;;23.00;100794.00;;;;5049453;28;20200;-77
2022/06/25 03:05:49;;;;;;;3.00;2.25;;;;;22.90;100796.00;;;;5049297;28;20202;-78
2022/06/25 03:08:17;;;;;;;2.60;2.40;;;;;23.00;100800.00;;;;5048986;28;20213;-77
2022/06/25 03:10:44;;;;;;;2.67;2.30;;;;;22.90;100798.00;;;;5049342;28;20219;-77
2022/06/25 03:13:12;;;;;;;2.75;2.45;;;;;22.90;100802.00;;;;5046074;28;20207;-78
2022/06/25 03:15:39;;;;;;;2.35;2.10;;;;;22.90;100808.00;;;;5049864;28;20207;-78
2022/06/25 03:18:07;;;;;;;3.33;2.60;;;;;22.90;100811.00;;;;5049569;28;20192;-78
2022/06/25 03:20:34;;;;;;;2.90;1.92;;;;;22.90;100805.00;;;;5049501;28;20204;-78
2022/06/25 03:23:03;;;;;;;3.10;2.80;;;;;22.90;100813.00;;;;5049539;28;20195;-78
2022/06/25 03:25:31;;;;;;;3.38;1.92;;;;;22.90;100818.00;;;;5049529;28;20398;-78
2022/06/25 03:27:59;;;;;;;3.20;1.65;;;;;22.90;100820.00;;;;5049114;28;20606;-78
2022/06/25 03:30:26;;;;;;;3.50;2.20;;;;;22.90;100813.00;;;;5036044;28;20709;-78
2022/06/25 03:32:53;;;;;;;2.40;2.20;;;;;22.90;100822.00;;;;5028555;28;20192;-78
2022/06/25 03:35:21;;;;;;;5.18;2.25;;;;;22.90;100822.00;;;;5048242;28;20203;-78
2022/06/25 03:37:48;;;;;;;2.30;2.10;;;;;22.90;100817.00;;;;5049571;28;20204;-78
2022/06/25 03:40:17;;;;;;;3.22;2.22;;;;;22.90;100824.00;;;;5049285;28;20202;-78
2022/06/25 03:42:45;;;;;;;3.30;2.22;;;;;22.90;100819.00;;;;5049501;28;20269;-78
2022/06/25 03:45:12;;;;;;;2.08;1.83;;;;;22.90;100822.00;;;;5049235;28;20310;-78
2022/06/25 03:47:40;;;;;;;2.47;1.90;;;;;22.90;100821.00;;;;5046479;28;20192;-78
2022/06/25 03:50:10;;;;;;;2.33;1.88;;;;;22.90;100820.00;;;;5049369;28;20222;-78
2022/06/25 03:52:38;;;;;;;4.72;2.40;;;;;22.90;100818.00;;;;5048556;28;20210;-75
2022/06/25 03:55:06;;;;;;;2.38;1.80;;;;;22.90;100829.00;;;;5042875;28;20196;-78
2022/06/25 03:57:37;;;;;;;2.33;1.88;;;;;22.90;100823.00;;;;5048102;28;20683;-78
2022/06/25 04:00:06;;;;;;;4.38;2.15;;;;;22.90;100826.00;;;;5052451;28;20192;-78
2022/06/25 04:02:33;;;;;;;2.95;1.70;;;;;22.90;100825.00;;;;5049201;28;20195;-78
2022/06/25 04:05:00;;;;;;;2.55;1.70;;;;;22.90;100822.00;;;;5047463;28;20200;-78
2022/06/25 04:07:31;;;;;;;1.90;1.70;;;;;22.90;100822.00;;;;5048150;28;20196;-78
2022/06/25 04:09:58;;;;;;;3.22;1.83;;;;;23.00;100821.00;;;;5041255;28;20595;-78
2022/06/25 04:12:25;;;;;;;4.10;2.08;;;;;23.00;100824.00;;;;5048584;28;20204;-78
2022/06/25 04:14:55;;;;;;;3.15;1.75;;;;;23.00;100822.00;;;;5047404;28;20188;-78
2022/06/25 04:17:22;;;;;;;4.85;1.98;;;;;23.00;100826.00;;;;5047693;28;20192;-78
2022/06/25 04:19:49;;;;;;;1.75;1.42;;;;;23.10;100824.00;;;;5048196;28;20203;-78
2022/06/25 04:22:17;;;;;;;1.50;1.30;;;;;23.10;100823.00;;;;5043428;28;20661;-78
2022/06/25 04:24:44;;;;;;;3.60;1.70;;;;;23.10;100828.00;;;;5048777;28;20208;-78
2022/06/25 04:29:03;;;;;;;3.80;2.47;;;;;23.10;100828.00;;;;5048430;28;20215;-78
2022/06/25 04:29:59;;;;;;;2.65;1.52;;;;;23.20;100833.00;;;;5044961;28;20223;-78
2022/06/25 04:32:26;;;;;;;2.03;1.60;;;;;23.20;100832.00;;;;5048396;28;20318;-78
2022/06/25 04:34:53;;;;;;;2.85;1.67;;;;;23.30;100844.00;;;;5047808;28;20192;-77
2022/06/25 04:37:21;;;;;;;2.03;1.65;;;;;23.30;100844.00;;;;5043994;28;20215;-78
2022/06/25 04:39:48;;;;;;;1.83;1.63;;;;;23.30;100839.00;;;;5047577;28;20207;-78
2022/06/25 04:42:15;;;;;;;2.38;1.90;;;;;23.30;100838.00;;;;5048369;28;20198;-78
2022/06/25 04:44:43;;;;;;;2.40;1.67;;;;;23.40;100845.00;;;;5047349;28;20238;-78
2022/06/25 04:47:12;;;;;;;2.38;1.58;;;;;23.40;100849.00;;;;5048111;28;20207;-78
2022/06/25 04:49:39;;;;;;;3.17;2.05;;;;;23.50;100849.00;;;;5048695;28;20207;-78
2022/06/25 04:52:07;;;;;;;3.28;1.70;;;;;23.50;100847.00;;;;5048707;28;20203;-77
2022/06/25 04:54:34;;;;;;;1.95;1.60;;;;;23.60;100857.00;;;;5042331;28;20204;-77
2022/06/25 04:57:02;;;;;;;1.63;1.52;;;;;23.60;100862.00;;;;5048026;28;20212;-78
2022/06/25 04:59:29;;;;;;;1.70;1.60;;;;;23.60;100863.00;;;;5047087;28;20608;-78
2022/06/25 05:01:57;;;;;;;1.83;1.73;;;;;23.60;100868.00;;;;5047262;28;20199;-78
2022/06/25 05:04:25;;;;;;;2.10;1.83;;;;;23.60;100865.00;;;;5047621;28;20253;-78
2022/06/25 05:06:53;;;;;;;5.45;1.70;;;;;23.70;100868.00;;;;5054615;28;20233;-78
2022/06/25 05:09:20;;;;;;;3.53;1.80;;;;;23.70;100871.00;;;;5054160;28;20203;-78
2022/06/25 05:11:47;;;;;;;2.28;1.55;;;;;23.80;100871.00;;;;5050139;28;20234;-78
2022/06/25 05:14:15;;;;;;;2.10;1.60;;;;;23.80;100875.00;;;;5052490;28;20203;-77
2022/06/25 05:16:42;;;;;;;3.65;1.55;;;;;23.90;100882.00;;;;5051857;28;20203;-78
2022/06/25 05:19:10;;;;;;;3.80;1.50;;;;;23.90;100882.00;;;;5051465;28;20195;-78
2022/06/25 05:21:38;;;;;;;2.00;1.73;;;;;24.00;100880.00;;;;5052113;28;20210;-75
2022/06/25 05:24:06;;;;;;;1.80;1.65;;;;;24.00;100885.00;;;;5052120;28;20200;-75
2022/06/25 05:26:34;;;;;;;4.20;1.77;;;;;24.10;100889.00;;;;5052407;28;20246;-77
2022/06/25 05:29:01;;;;;;;2.30;1.75;;;;;24.10;100892.00;;;;5052608;28;20214;-78
2022/06/25 05:31:28;;;;;;;2.38;2.17;;;;;24.10;100891.00;;;;5052062;28;20231;-78
2022/06/25 05:33:56;;;;;;;9.48;1.90;;;;;24.20;100894.00;;;;5050601;28;20203;-77
2022/06/25 05:36:23;;;;;;;1.42;1.30;;;;;24.20;100899.00;;;;5049018;28;20199;-78
2022/06/25 05:38:52;;;;;;;1.75;1.65;;;;;24.20;100905.00;;;;5045912;28;20199;-77
2022/06/25 05:41:19;;;;;;;2.70;1.77;;;;;24.20;100908.00;;;;5053194;28;20199;-75
2022/06/25 05:43:46;;;;;;;2.15;1.83;;;;;24.20;100902.00;;;;5052701;28;20227;-77
2022/06/25 05:46:15;;;;;;;2.22;1.45;;;;;24.30;100913.00;;;;5050453;28;20210;-79
2022/06/25 05:48:42;;;;;;;3.05;1.73;;;;;24.30;100911.00;;;;5053671;28;20228;-80
2022/06/25 05:51:09;;;;;;;1.63;1.52;;;;;24.30;100912.00;;;;5053987;28;20226;-77
2022/06/25 05:53:39;;;;;;;2.45;2.22;;;;;24.40;100911.00;;;;5053752;28;20199;-78
2022/06/25 05:56:07;;;;;;;1.50;1.40;;;;;24.40;100910.00;;;;5053882;28;20203;-78
2022/06/25 05:58:35;;;;;;;3.70;1.38;;;;;24.50;100919.00;;;;5052277;28;20652;-78
2022/06/25 06:01:02;;;;;;;2.22;1.70;;;;;24.50;100914.00;;;;5033673;28;20195;-79
2022/06/25 06:03:29;;;;;;;1.50;1.40;;;;;24.60;100916.00;;;;5051576;28;20210;-78
2022/06/25 06:05:58;;;;;;;11.73;2.17;;;;;24.70;100918.00;;;;5050917;28;20203;-78
2022/06/25 06:08:25;;;;;;;3.10;1.80;;;;;24.70;100924.00;;;;5053739;28;20215;-78
2022/06/25 06:10:52;;;;;;;1.55;1.20;;;;;24.80;100925.00;;;;5051588;28;20709;-78
2022/06/25 06:13:21;;;;;;;2.05;1.50;;;;;24.80;100925.00;;;;5052606;28;20200;-78
2022/06/25 06:15:48;;;;;;;2.17;1.80;;;;;24.90;100930.00;;;;5052589;28;20203;-78
2022/06/25 06:18:16;;;;;;;3.17;2.03;;;;;25.00;100932.00;;;;5044669;28;20203;-79
2022/06/25 06:20:43;;;;;;;2.35;1.70;;;;;25.00;100932.00;;;;5039786;28;20210;-77
2022/06/25 06:23:10;;;;;;;4.55;1.95;;;;;25.10;100935.00;;;;5049719;28;20206;-78
2022/06/25 06:25:38;;;;;;;2.67;1.48;;;;;25.10;100934.00;;;;5048591;28;20203;-78
2022/06/25 06:28:06;;;;;;;2.60;2.40;;;;;25.20;100949.00;;;;5048767;28;20210;-78
2022/06/25 06:30:38;;;;;;;3.67;1.77;;;;;25.10;100943.00;;;;5049602;28;20260;-79
2022/06/25 06:33:08;;;;;;;2.28;1.83;;;;;25.20;100953.00;;;;5049064;28;20203;-80
2022/06/25 06:35:35;;;;;;;2.30;2.00;;;;;25.20;100942.00;;;;5048288;28;20670;-77
2022/06/25 06:38:02;;;;;;;5.28;2.15;;;;;25.20;100947.00;;;;5045643;28;20203;-80
2022/06/25 06:40:30;;;;;;;2.92;1.92;;;;;25.20;100950.00;;;;5045676;28;20200;-80
2022/06/25 06:42:57;;;;;;;4.55;2.08;;;;;25.30;100942.00;;;;5049314;28;20196;-82
2022/06/25 06:45:25;;;;;;;3.28;1.65;;;;;25.30;100948.00;;;;5049627;28;20646;-81
2022/06/25 06:47:56;;;;;;;1.70;1.38;;;;;25.30;100944.00;;;;5049148;28;20200;-79
2022/06/25 06:50:23;;;;;;;2.05;1.80;;;;;25.40;100941.00;;;;5047136;28;20203;-80
2022/06/25 06:52:50;;;;;;;3.08;1.70;;;;;25.50;100939.00;;;;5048995;28;20199;-80
2022/06/25 06:55:17;;;;;;;5.53;2.20;;;;;25.60;100943.00;;;;5039244;28;20192;-78
2022/06/25 06:57:45;;;;;;;2.53;1.98;;;;;25.60;100949.00;;;;5049121;28;20199;-78
2022/06/25 07:00:13;;;;;;;5.57;1.50;;;;;25.70;100948.00;;;;5050043;28;20282;-81
2022/06/25 07:02:41;;;;;;;3.83;1.98;;;;;25.80;100952.00;;;;5049900;28;20196;-79
2022/06/25 07:05:10;;;;;;;4.50;1.63;;;;;25.80;100962.00;;;;5047590;28;20214;-80
2022/06/25 07:07:37;;;;;;;2.63;1.58;;;;;25.90;100958.00;;;;5049772;28;20202;-79
2022/06/25 07:10:05;;;;;;;4.57;1.70;;;;;25.90;100959.00;;;;5047135;28;21185;-79
2022/06/25 07:12:33;;;;;;;1.75;1.40;;;;;25.90;100956.00;;;;5029152;28;20227;-80
2022/06/25 07:15:00;;;;;;;4.13;1.63;;;;;26.00;100969.00;;;;5051705;28;20227;-81
2022/06/25 07:17:28;;;;;;;2.67;1.45;;;;;26.00;100966.00;;;;5049017;28;20621;-83
2022/06/25 07:19:55;;;;;;;1.77;1.40;;;;;26.00;100969.00;;;;5047316;28;20239;-82
2022/06/25 07:22:24;;;;;;;2.58;1.83;;;;;26.00;100976.00;;;;5048401;28;20620;-80
2022/06/25 07:24:52;;;;;;;3.80;1.77;;;;;26.10;100980.00;;;;5048116;28;20206;-80
2022/06/25 07:27:20;;;;;;;3.58;1.92;;;;;26.10;100979.00;;;;5043697;28;20208;-80
2022/06/25 07:29:50;;;;;;;2.97;2.22;;;;;26.10;100970.00;;;;5038442;28;20229;-79
2022/06/25 07:32:17;;;;;;;2.28;1.27;;;;;26.10;100981.00;;;;5049439;28;20298;-79
2022/06/25 07:34:44;;;;;;;2.67;1.80;;;;;26.20;100978.00;;;;5047886;28;20203;-81
2022/06/25 07:37:12;;;;;;;2.15;1.35;;;;;26.20;100982.00;;;;5048625;28;20200;-78
2022/06/25 07:39:41;;;;;;;2.75;1.70;;;;;26.10;100979.00;;;;5049594;28;20192;-79
2022/06/25 07:42:08;;;;;;;2.25;1.55;;;;;26.10;100985.00;;;;5036193;28;20654;-79
2022/06/25 07:44:36;;;;;;;1.80;1.55;;;;;26.10;100988.00;;;;5038220;28;20227;-79
2022/06/25 07:47:04;;;;;;;2.83;1.40;;;;;26.20;100991.00;;;;5038487;28;20262;-80
2022/06/25 07:51:56;;;;;;;3.58;1.73;;;;;26.20;100985.00;;;;5049520;28;20573;-79
2022/06/25 07:52:18;;;;;;;1.98;1.77;;;;;26.20;100975.00;;;;5049220;28;20227;-79
2022/06/25 07:54:46;;;;;;;4.25;1.70;;;;;26.30;100978.00;;;;5047880;28;20192;-80
2022/06/25 07:57:14;;;;;;;3.30;1.58;;;;;26.40;100983.00;;;;5047504;28;20841;-80
2022/06/25 07:59:41;;;;;;;4.53;2.13;;;;;26.50;100985.00;;;;5048130;28;20290;-80
2022/06/25 08:02:08;;;;;;;2.47;1.73;;;;;26.50;100981.00;;;;5041597;28;20286;-78
2022/06/25 08:04:35;;;;;;;2.50;1.85;;;;;26.50;100985.00;;;;5048680;28;20199;-78
2022/06/25 08:07:06;;;;;;;3.40;2.17;;;;;26.50;100990.00;;;;5049467;28;20195;-78
2022/06/25 08:09:34;;;;;;;2.85;2.00;;;;;26.60;100988.00;;;;5047330;28;20211;-79
2022/06/25 08:12:06;;;;;;;2.55;1.90;;;;;26.60;100995.00;;;;5048394;28;20255;-78
2022/06/25 08:14:33;;;;;;;2.50;1.65;;;;;26.60;100996.00;;;;5049926;28;20201;-77
2022/06/25 08:17:00;;;;;;;1.85;1.65;;;;;26.60;100993.00;;;;5047822;28;20203;-78
2022/06/25 08:19:27;;;;;;;3.42;1.55;;;;;26.60;100994.00;;;;5040211;28;20200;-78
2022/06/25 08:21:55;;;;;;;4.57;1.92;;;;;26.50;101004.00;;;;5046626;28;20204;-79
2022/06/25 08:24:22;;;;;;;2.47;1.70;;;;;26.50;101006.00;;;;5046818;28;20203;-78
2022/06/25 08:26:49;;;;;;;2.60;2.13;;;;;26.50;101004.00;;;;5048370;28;20218;-78
2022/06/25 08:29:18;;;;;;;3.50;2.15;;;;;26.40;101015.00;;;;5048163;28;20223;-79
2022/06/25 08:31:45;;;;;;;3.45;1.58;;;;;26.40;101009.00;;;;5047459;28;20227;-79
2022/06/25 08:34:13;;;;;;;3.05;1.90;;;;;26.40;101011.00;;;;5048857;28;20206;-78
2022/06/25 08:36:40;;;;;;;4.70;1.90;;;;;26.40;101012.00;;;;5040099;28;20210;-78
2022/06/25 08:39:08;;;;;;;3.53;2.05;;;;;26.30;101012.00;;;;5048178;28;20677;-79
2022/06/25 08:41:35;;;;;;;2.85;1.77;;;;;26.30;101011.00;;;;5047771;28;20199;-79
2022/06/25 08:44:02;;;;;;;3.00;1.85;;;;;26.30;101010.00;;;;5047323;28;20220;-79
2022/06/25 08:46:32;;;;;;;2.10;1.70;;;;;26.20;101018.00;;;;5047124;28;20731;-80
2022/06/25 08:49:00;;;;;;;3.47;1.55;;;;;26.20;101013.00;;;;5046037;28;20216;-79
2022/06/25 08:51:31;;;;;;;3.17;1.65;;;;;26.10;101018.00;;;;5047667;28;20297;-80
2022/06/25 08:53:59;;;;;;;3.20;1.88;;;;;26.10;101012.00;;;;5029690;28;20234;-79
2022/06/25 08:56:28;;;;;;;2.60;1.48;;;;;26.20;101014.00;;;;5028536;28;20207;-79
2022/06/25 08:58:57;;;;;;;2.80;1.75;;;;;26.20;101013.00;;;;5028187;28;20736;-79
2022/06/25 09:01:24;;;;;;;2.63;1.75;;;;;26.20;101016.00;;;;5027961;28;20204;-80
2022/06/25 09:03:53;;;;;;;3.22;1.85;;;;;26.30;101017.00;;;;5034493;28;20196;-79
2022/06/25 09:06:21;;;;;;;1.48;1.23;;;;;26.30;101023.00;;;;5047498;28;20234;-79
2022/06/25 09:09:08;;;;;;;3.33;1.50;;;;;26.20;101008.00;;;;5046772;28;20223;-80
2022/06/25 09:11:52;;;;;;;5.22;2.08;;;;;26.30;101008.00;;;;5027689;28;20250;-80
2022/06/25 09:14:25;;;;;;;1.67;1.58;;;;;26.40;101019.00;;;;5028126;28;20204;-80
2022/06/25 09:16:57;;;;;;;2.15;1.77;;;;;26.40;101016.00;;;;5034226;28;20206;-80
2022/06/25 09:19:34;;;;;;;2.60;2.28;;;;;26.30;101021.00;;;;5047569;28;20215;-80
2022/06/25 09:22:03;;;;;;;2.15;1.92;;;;;26.40;101019.00;;;;5047623;28;20199;-79
2022/06/25 09:24:45;;;;;;;5.32;2.20;;;;;26.40;101018.00;;;;5046254;28;20747;-80
2022/06/25 09:27:13;;;;;;;5.47;2.20;;;;;26.50;101021.00;;;;5035414;28;20224;-79
2022/06/25 09:29:43;;;;;;;2.00;1.77;;;;;26.50;101018.00;;;;5027284;28;20200;-80
2022/06/25 09:32:13;;;;;;;2.08;1.88;;;;;26.60;101019.00;;;;5041903;28;20233;-80
2022/06/25 09:34:43;;;;;;;2.42;1.85;;;;;26.60;101013.00;;;;5045682;28;20226;-78
2022/06/25 09:37:23;;;;;;;3.28;2.42;;;;;26.60;101006.00;;;;5046288;28;20780;-78
2022/06/25 09:39:51;;;;;;;4.50;2.20;;;;;26.70;101013.00;;;;5046303;28;20198;-79
2022/06/25 09:42:27;;;;;;;3.05;2.35;;;;;26.70;101011.00;;;;5047405;28;20198;-78
2022/06/25 09:45:07;;;;;;;2.92;2.70;;;;;26.80;101006.00;;;;5031315;28;20236;-78
2022/06/25 09:47:40;;;;;;;3.03;2.78;;;;;26.90;101011.00;;;;5045550;28;20207;-77
2022/06/25 09:50:12;;;;;;;3.67;3.38;;;;;27.00;101017.00;;;;5046944;28;20192;-79
2022/06/25 09:52:49;;;;;;;3.53;3.13;;;;;27.10;101010.00;;;;5049849;28;20219;-79
2022/06/25 09:55:17;;;;;;;3.25;2.95;;;;;27.10;101011.00;;;;5051594;28;20219;-79
2022/06/25 09:57:45;;;;;;;3.42;2.65;;;;;27.10;101008.00;;;;5051423;28;20199;-78
2022/06/25 10:00:14;;;;;;;2.97;2.30;;;;;27.20;101009.00;;;;5048522;28;20240;-79
2022/06/25 10:02:45;;;;;;;2.88;2.38;;;;;27.20;101020.00;;;;5051267;28;20227;-79
2022/06/25 10:05:16;;;;;;;2.20;2.00;;;;;27.20;101008.00;;;;5051313;28;20206;-79
2022/06/25 10:08:07;;;;;;;2.30;1.98;;;;;27.20;101007.00;;;;5048826;28;20209;-78
2022/06/25 10:10:38;;;;;;;4.22;1.98;;;;;27.20;101014.00;;;;5038557;28;20673;-79
2022/06/25 10:13:06;;;;;;;2.70;1.80;;;;;27.20;101011.00;;;;5049212;28;20630;-77
2022/06/25 10:15:34;;;;;;;2.38;1.67;;;;;27.20;101018.00;;;;5050574;28;20204;-78
2022/06/25 10:18:04;;;;;;;2.92;1.67;;;;;27.20;101014.00;;;;5042119;28;20239;-78
2022/06/25 10:20:33;;;;;;;4.15;2.28;;;;;27.20;101018.00;;;;5049657;28;20653;-78
2022/06/25 10:23:03;;;;;;;4.45;2.05;;;;;27.20;101017.00;;;;5050723;28;20260;-78
2022/06/25 10:25:31;;;;;;;1.60;1.50;;;;;27.20;101019.00;;;;5050303;28;20195;-77
2022/06/25 10:28:07;;;;;;;1.60;1.40;;;;;27.20;101018.00;;;;5050444;28;20204;-78
2022/06/25 10:30:44;;;;;;;1.60;1.38;;;;;27.30;101026.00;;;;5037184;28;20227;-79
2022/06/25 10:33:12;;;;;;;1.70;1.50;;;;;27.40;101022.00;;;;5050897;28;20288;-78
2022/06/25 10:35:42;;;;;;;1.63;1.30;;;;;27.40;101019.00;;;;5040573;28;20204;-78
2022/06/25 10:38:11;;;;;;;2.17;1.98;;;;;27.50;101025.00;;;;5049310;28;20772;-77
2022/06/25 10:40:50;;;;;;;1.95;1.77;;;;;27.40;101020.00;;;;5049523;28;20198;-78
2022/06/25 10:43:42;;;;;;;1.63;1.52;;;;;27.50;101019.00;;;;5045567;28;20231;-79
2022/06/25 10:46:28;;;;;;;2.10;1.70;;;;;27.60;101027.00;;;;5034871;28;20192;-78
2022/06/25 10:49:06;;;;;;;1.67;1.55;;;;;27.70;101027.00;;;;5048935;28;20206;-77
2022/06/25 10:51:43;;;;;;;3.63;1.60;;;;;27.90;101024.00;;;;5045096;28;20203;-77
2022/06/25 10:54:34;;;;;;;2.13;1.30;;;;;28.00;101019.00;;;;5045119;28;20195;-79
2022/06/25 10:57:04;;;;;;;4.60;1.35;;;;;28.10;101011.00;;;;5039805;28;20207;-80
2022/06/25 10:59:48;;;;;;;1.60;1.45;;;;;28.10;101014.00;;;;5045676;28;20199;-79
2022/06/25 11:02:17;;;;;;;1.52;1.20;;;;;28.30;101021.00;;;;5047114;28;20195;-78
2022/06/25 11:04:53;;;;;;;0.82;0.80;;;;;28.30;101022.00;;;;5047180;28;20281;-78
2022/06/25 11:07:24;;;;;;;1.40;1.13;;;;;28.40;101018.00;;;;5046420;28;20377;-78
2022/06/25 11:09:59;;;;;;;1.00;0.90;;;;;28.40;101010.00;;;;5047153;28;20318;-77
2022/06/25 11:12:28;;;;;;;1.15;0.80;;;;;28.50;101016.00;;;;5050067;28;20230;-79
2022/06/25 11:15:01;;;;;;;1.05;0.95;;;;;28.50;101012.00;;;;5044575;28;20200;-81
2022/06/25 11:17:29;;;;;;;0.90;0.90;;;;;28.60;101015.00;;;;5047361;28;20203;-79
2022/06/25 11:20:01;;;;;;;3.08;0.98;;;;;28.50;101016.00;;;;5049312;28;20207;-79
2022/06/25 11:22:30;;;;;;;0.70;0.70;;;;;28.50;101017.00;;;;5049320;28;20199;-80
2022/06/25 11:30:28;;;;;;;0.90;0.80;;;;;28.40;101018.00;;;;5035237;28;20587;-80
2022/06/25 11:32:56;;;;;;;3.20;1.17;;;;;28.40;101023.00;;;;5047389;28;20234;-80
2022/06/25 11:35:37;;;;;;;1.27;1.00;;;;;28.40;101028.00;;;;5046482;28;20203;-76
2022/06/25 11:38:13;;;;;;;0.82;0.82;;;;;28.30;101034.00;;;;5045273;28;20188;-77
2022/06/25 11:40:40;;;;;;;2.22;1.00;;;;;28.30;101039.00;;;;5046341;28;20191;-80
2022/06/25 11:43:08;;;;;;;1.73;0.85;;;;;28.20;101046.00;;;;5045999;28;20192;-80
2022/06/25 11:45:48;;;;;;;2.45;1.70;;;;;28.10;101055.00;;;;5047733;28;20200;-77
2022/06/25 11:48:16;;;;;;;3.00;2.17;;;;;28.10;101055.00;;;;5047027;28;20200;-75
2022/06/25 11:50:44;;;;;;;3.78;2.85;;;;;28.10;101051.00;;;;5046830;28;20203;-76
2022/06/25 11:53:13;;;;;;;5.70;3.88;;;;;28.00;101049.00;;;;5048999;28;20227;-76
2022/06/25 11:55:40;;;;;;;3.10;2.80;;;;;28.00;101057.00;;;;5047214;28;20673;-76
2022/06/25 11:58:07;;;;;;;4.50;3.20;;;;;28.10;101056.00;;;;5048420;28;20206;-76
2022/06/25 12:00:35;;;;;;;4.72;3.70;;;;;28.10;101066.00;;;;5036090;28;20200;-78
2022/06/25 12:03:03;;;;;;;4.38;3.95;;;;;28.20;101067.00;;;;5048566;28;20245;-78
2022/06/25 12:05:31;;;;;;;4.18;3.78;;;;;28.30;101058.00;;;;5048074;28;20200;-79
2022/06/25 12:07:58;;;;;;;5.05;3.67;;;;;28.30;101063.00;;;;5048386;28;20200;-80
2022/06/25 12:10:30;;;;;;;4.30;3.83;;;;;28.30;101057.00;;;;5047161;28;20208;-81
2022/06/25 12:12:58;;;;;;;3.38;3.05;;;;;28.40;101059.00;;;;5032275;28;20223;-81
2022/06/25 12:15:31;;;;;;;3.70;3.40;;;;;28.30;101056.00;;;;5046415;28;20219;-80
2022/06/25 12:18:05;;;;;;;3.33;2.90;;;;;28.40;101058.00;;;;5047374;28;20237;-80
2022/06/25 12:20:32;;;;;;;4.10;3.28;;;;;28.40;101059.00;;;;5048318;28;20207;-79
2022/06/25 12:23:01;;;;;;;3.63;3.08;;;;;28.40;101051.00;;;;5046604;28;20200;-79
2022/06/25 12:25:33;;;;;;;3.33;3.03;;;;;28.50;101052.00;;;;5047081;28;20204;-80
2022/06/25 12:28:01;;;;;;;3.78;3.47;;;;;28.50;101057.00;;;;5045937;28;20251;-79
2022/06/25 12:30:30;;;;;;;3.35;2.97;;;;;28.50;101062.00;;;;5044470;28;20211;-78
2022/06/25 12:33:05;;;;;;;3.83;3.53;;;;;28.50;101057.00;;;;5044902;28;20219;-78
2022/06/25 12:35:33;;;;;;;4.38;3.20;;;;;28.60;101051.00;;;;5027735;28;20188;-77